createdAt,value
2023-05-20T00:00:28.905Z,0.00
2023-05-20T00:01:28.894Z,0.00
2023-05-20T00:02:29.092Z,0.00
2023-05-20T00:03:28.970Z,0.00
2023-05-20T00:04:28.896Z,0.00
2023-05-20T00:05:28.859Z,0.00
2023-05-20T00:06:28.902Z,0.00
2023-05-20T00:07:28.850Z,0.00
2023-05-20T00:08:28.820Z,0.00
2023-05-20T00:09:28.802Z,0.00
2023-05-20T00:10:28.817Z,0.00
2023-05-20T00:11:28.826Z,0.00
2023-05-20T00:12:28.769Z,0.00
2023-05-20T00:13:28.802Z,0.00
2023-05-20T00:14:28.761Z,0.00
2023-05-20T00:15:28.747Z,0.00
2023-05-20T00:16:28.780Z,0.00
2023-05-20T00:17:28.748Z,0.00
2023-05-20T00:18:28.707Z,0.00
2023-05-20T00:19:28.787Z,0.00
2023-05-20T00:20:28.725Z,0.00
2023-05-20T00:21:28.703Z,0.00
2023-05-20T00:22:28.659Z,0.00
2023-05-20T00:23:28.666Z,0.00
2023-05-20T00:24:28.646Z,0.00
2023-05-20T00:25:28.665Z,0.00
2023-05-20T00:26:28.644Z,0.00
2023-05-20T00:27:28.625Z,0.00
2023-05-20T00:28:28.605Z,0.00
2023-05-20T00:29:28.599Z,0.00
2023-05-20T00:30:28.576Z,0.00
2023-05-20T00:31:28.625Z,0.00
2023-05-20T00:32:28.664Z,0.00
2023-05-20T00:33:28.542Z,0.00
2023-05-20T00:34:28.531Z,0.00
2023-05-20T00:35:28.563Z,0.00
2023-05-20T00:36:28.577Z,0.00
2023-05-20T00:37:28.502Z,0.00
2023-05-20T00:38:28.485Z,0.00
2023-05-20T00:39:28.496Z,0.00
2023-05-20T00:40:28.494Z,0.00
2023-05-20T00:41:28.464Z,0.00
2023-05-20T00:42:28.462Z,0.00
2023-05-20T00:43:28.437Z,0.00
2023-05-20T00:44:28.453Z,0.00
2023-05-20T00:45:28.429Z,0.00
2023-05-20T00:46:28.497Z,0.00
2023-05-20T00:47:28.407Z,0.00
2023-05-20T00:48:28.375Z,0.00
2023-05-20T00:49:28.444Z,0.00
2023-05-20T00:50:28.368Z,0.00
2023-05-20T00:51:28.346Z,0.00
2023-05-20T00:52:28.336Z,0.00
2023-05-20T00:53:28.370Z,0.00
2023-05-20T00:54:28.344Z,0.00
2023-05-20T00:55:28.302Z,0.00
2023-05-20T00:56:28.310Z,0.00
2023-05-20T00:57:28.289Z,0.00
2023-05-20T00:58:28.311Z,0.00
2023-05-20T00:59:28.252Z,0.00
2023-05-20T01:00:28.251Z,0.00
2023-05-20T01:01:28.318Z,0.00
2023-05-20T01:02:28.358Z,0.00
2023-05-20T01:03:28.433Z,0.00
2023-05-20T01:04:28.202Z,0.00
2023-05-20T01:05:28.189Z,0.00
2023-05-20T01:06:28.248Z,0.00
2023-05-20T01:07:28.184Z,0.00
2023-05-20T01:08:28.170Z,0.00
2023-05-20T01:09:28.157Z,0.00
2023-05-20T01:10:28.143Z,0.00
2023-05-20T01:11:28.120Z,0.00
2023-05-20T01:12:28.294Z,0.00
2023-05-20T01:13:28.108Z,0.00
2023-05-20T01:14:28.108Z,0.00
2023-05-20T01:15:28.078Z,0.00
2023-05-20T01:16:28.109Z,0.00
2023-05-20T01:17:28.088Z,0.00
2023-05-20T01:18:28.043Z,0.00
2023-05-20T01:19:28.150Z,0.00
2023-05-20T01:20:28.022Z,0.00
2023-05-20T01:21:28.042Z,0.00
2023-05-20T01:22:28.017Z,0.00
2023-05-20T01:23:27.990Z,0.00
2023-05-20T01:24:27.982Z,0.00
2023-05-20T01:25:27.972Z,0.00
2023-05-20T01:26:27.985Z,0.00
2023-05-20T01:27:27.966Z,0.00
2023-05-20T01:28:27.932Z,0.00
2023-05-20T01:29:27.922Z,0.00
2023-05-20T01:30:27.938Z,0.00
2023-05-20T01:31:27.996Z,0.00
2023-05-20T01:32:27.912Z,0.00
2023-05-20T01:33:27.879Z,0.00
2023-05-20T01:34:27.867Z,0.00
2023-05-20T01:35:27.857Z,0.00
2023-05-20T01:36:27.906Z,0.00
2023-05-20T01:37:27.840Z,0.00
2023-05-20T01:38:27.825Z,0.00
2023-05-20T01:39:27.820Z,0.00
2023-05-20T01:40:27.817Z,0.00
2023-05-20T01:41:27.804Z,0.00
2023-05-20T01:42:27.807Z,0.00
2023-05-20T01:43:27.780Z,0.00
2023-05-20T01:44:27.758Z,0.00
2023-05-20T01:45:27.746Z,0.00
2023-05-20T01:46:27.835Z,0.00
2023-05-20T01:47:27.769Z,0.00
2023-05-20T01:48:27.719Z,0.00
2023-05-20T01:49:27.707Z,0.00
2023-05-20T01:50:27.697Z,0.00
2023-05-20T01:51:27.772Z,0.00
2023-05-20T01:52:27.675Z,0.00
2023-05-20T01:53:27.657Z,0.00
2023-05-20T01:54:27.668Z,0.00
2023-05-20T01:55:27.635Z,0.00
2023-05-20T01:56:27.646Z,0.00
2023-05-20T01:57:27.621Z,0.00
2023-05-20T01:58:27.601Z,0.00
2023-05-20T01:59:27.624Z,0.00
2023-05-20T02:00:27.591Z,0.00
2023-05-20T02:01:27.631Z,0.00
2023-05-20T02:02:27.732Z,0.00
2023-05-20T02:03:27.627Z,0.00
2023-05-20T02:04:27.568Z,0.00
2023-05-20T02:05:27.601Z,0.00
2023-05-20T02:06:27.535Z,0.00
2023-05-20T02:07:27.508Z,0.00
2023-05-20T02:08:27.507Z,0.00
2023-05-20T02:09:27.497Z,0.00
2023-05-20T02:10:27.471Z,0.00
2023-05-20T02:11:27.458Z,0.00
2023-05-20T02:12:27.452Z,0.00
2023-05-20T02:13:27.475Z,0.00
2023-05-20T02:14:27.445Z,0.00
2023-05-20T02:15:27.446Z,0.00
2023-05-20T02:16:27.472Z,0.00
2023-05-20T02:17:27.444Z,0.00
2023-05-20T02:18:27.412Z,0.00
2023-05-20T02:19:27.425Z,0.00
2023-05-20T02:20:27.371Z,0.00
2023-05-20T02:21:27.361Z,0.00
2023-05-20T02:22:27.352Z,0.00
2023-05-20T02:23:27.360Z,0.00
2023-05-20T02:24:27.319Z,0.00
2023-05-20T02:25:27.318Z,0.00
2023-05-20T02:26:27.305Z,0.00
2023-05-20T02:27:27.307Z,0.00
2023-05-20T02:28:27.289Z,0.00
2023-05-20T02:29:27.282Z,0.00
2023-05-20T02:30:27.262Z,0.00
2023-05-20T02:31:27.247Z,0.00
2023-05-20T02:32:27.242Z,0.00
2023-05-20T02:33:27.408Z,0.00
2023-05-20T02:34:27.355Z,4.00
2023-05-20T02:35:27.207Z,4.00
2023-05-20T02:36:27.192Z,4.00
2023-05-20T02:37:27.197Z,4.00
2023-05-20T02:38:27.175Z,0.00
2023-05-20T02:39:27.159Z,0.00
2023-05-20T02:40:27.150Z,4.00
2023-05-20T02:41:27.150Z,4.00
2023-05-20T02:42:27.145Z,4.00
2023-05-20T02:43:27.139Z,4.00
2023-05-20T02:44:27.108Z,4.00
2023-05-20T02:45:27.099Z,0.00
2023-05-20T02:46:27.136Z,4.00
2023-05-20T02:47:27.082Z,4.00
2023-05-20T02:48:27.075Z,4.00
2023-05-20T02:49:27.055Z,4.00
2023-05-20T02:50:27.056Z,8.00
2023-05-20T02:51:27.048Z,4.00
2023-05-20T02:52:27.060Z,8.00
2023-05-20T02:53:27.006Z,4.00
2023-05-20T02:54:27.007Z,8.00
2023-05-20T02:55:26.979Z,8.00
2023-05-20T02:56:26.986Z,8.00
2023-05-20T02:57:26.959Z,12.00
2023-05-20T02:58:26.953Z,8.00
2023-05-20T02:59:26.948Z,12.00
2023-05-20T03:00:26.942Z,12.00
2023-05-20T03:01:26.953Z,12.00
2023-05-20T03:02:26.953Z,12.00
2023-05-20T03:03:26.894Z,12.00
2023-05-20T03:04:26.887Z,16.00
2023-05-20T03:05:26.972Z,16.00
2023-05-20T03:06:26.923Z,16.00
2023-05-20T03:07:26.858Z,20.00
2023-05-20T03:08:26.846Z,20.00
2023-05-20T03:09:26.826Z,24.00
2023-05-20T03:10:26.831Z,24.00
2023-05-20T03:11:26.818Z,28.00
2023-05-20T03:12:26.796Z,28.00
2023-05-20T03:13:26.813Z,32.00
2023-05-20T03:14:26.795Z,32.00
2023-05-20T03:15:26.770Z,32.00
2023-05-20T03:16:26.791Z,36.00
2023-05-20T03:17:26.752Z,40.00
2023-05-20T03:18:26.732Z,40.00
2023-05-20T03:19:26.840Z,44.00
2023-05-20T03:20:26.711Z,48.00
2023-05-20T03:21:26.754Z,52.00
2023-05-20T03:22:26.726Z,56.00
2023-05-20T03:23:26.672Z,56.00
2023-05-20T03:24:26.688Z,56.00
2023-05-20T03:25:26.655Z,60.00
2023-05-20T03:26:26.644Z,64.00
2023-05-20T03:27:26.660Z,64.00
2023-05-20T03:28:26.641Z,68.00
2023-05-20T03:29:26.654Z,72.00
2023-05-20T03:30:26.733Z,76.00
2023-05-20T03:31:26.606Z,84.00
2023-05-20T03:32:26.585Z,84.00
2023-05-20T03:33:26.601Z,92.00
2023-05-20T03:34:26.558Z,92.00
2023-05-20T03:35:26.568Z,96.00
2023-05-20T03:36:26.526Z,104.00
2023-05-20T03:37:26.541Z,108.00
2023-05-20T03:38:26.619Z,112.00
2023-05-20T03:39:26.500Z,112.00
2023-05-20T03:40:26.786Z,116.00
2023-05-20T03:41:26.477Z,116.00
2023-05-20T03:42:26.477Z,116.00
2023-05-20T03:43:26.509Z,124.00
2023-05-20T03:44:26.481Z,136.00
2023-05-20T03:45:26.445Z,140.00
2023-05-20T03:46:26.464Z,148.00
2023-05-20T03:47:26.466Z,148.00
2023-05-20T03:48:26.409Z,148.00
2023-05-20T03:49:26.435Z,156.00
2023-05-20T03:50:26.377Z,156.00
2023-05-20T03:51:26.362Z,156.00
2023-05-20T03:52:26.424Z,164.00
2023-05-20T03:53:26.365Z,172.00
2023-05-20T03:54:26.367Z,184.00
2023-05-20T03:55:26.325Z,188.00
2023-05-20T03:56:26.315Z,196.00
2023-05-20T03:57:26.322Z,208.00
2023-05-20T03:58:26.310Z,212.00
2023-05-20T03:59:26.279Z,220.00
2023-05-20T04:00:26.276Z,224.00
2023-05-20T04:01:26.254Z,224.00
2023-05-20T04:02:26.398Z,224.00
2023-05-20T04:03:26.317Z,220.00
2023-05-20T04:04:26.223Z,216.00
2023-05-20T04:05:26.217Z,232.00
2023-05-20T04:06:26.266Z,232.00
2023-05-20T04:07:26.212Z,232.00
2023-05-20T04:08:26.193Z,236.00
2023-05-20T04:09:26.169Z,240.00
2023-05-20T04:10:26.181Z,236.00
2023-05-20T04:11:26.337Z,240.00
2023-05-20T04:12:26.172Z,248.00
2023-05-20T04:13:26.121Z,256.00
2023-05-20T04:14:26.115Z,268.00
2023-05-20T04:15:26.108Z,284.00
2023-05-20T04:16:26.152Z,296.00
2023-05-20T04:17:26.142Z,308.00
2023-05-20T04:18:26.082Z,312.00
2023-05-20T04:19:26.169Z,304.00
2023-05-20T04:20:26.100Z,296.00
2023-05-20T04:21:26.057Z,296.00
2023-05-20T04:22:26.032Z,296.00
2023-05-20T04:23:26.018Z,304.00
2023-05-20T04:24:26.011Z,308.00
2023-05-20T04:25:26.019Z,320.00
2023-05-20T04:26:26.016Z,332.00
2023-05-20T04:27:25.984Z,348.00
2023-05-20T04:28:25.962Z,368.00
2023-05-20T04:29:25.952Z,392.00
2023-05-20T04:30:25.961Z,412.00
2023-05-20T04:31:25.984Z,432.00
2023-05-20T04:32:25.977Z,436.00
2023-05-20T04:33:25.909Z,440.00
2023-05-20T04:34:25.901Z,440.00
2023-05-20T04:35:26.036Z,436.00
2023-05-20T04:36:25.876Z,424.00
2023-05-20T04:37:25.867Z,408.00
2023-05-20T04:38:28.144Z,412.00
2023-05-20T04:39:25.860Z,416.00
2023-05-20T04:40:25.887Z,424.00
2023-05-20T04:41:25.828Z,424.00
2023-05-20T04:42:25.893Z,412.00
2023-05-20T04:43:25.827Z,396.00
2023-05-20T04:44:25.828Z,392.00
2023-05-20T04:45:25.824Z,392.00
2023-05-20T04:46:25.835Z,388.00
2023-05-20T04:47:25.902Z,396.00
2023-05-20T04:48:25.824Z,408.00
2023-05-20T04:49:25.829Z,420.00
2023-05-20T04:50:25.740Z,428.00
2023-05-20T04:51:25.727Z,424.00
2023-05-20T04:52:25.705Z,412.00
2023-05-20T04:53:25.810Z,392.00
2023-05-20T04:54:25.708Z,372.00
2023-05-20T04:55:25.675Z,360.00
2023-05-20T04:56:25.673Z,352.00
2023-05-20T04:57:25.662Z,340.00
2023-05-20T04:58:25.686Z,340.00
2023-05-20T04:59:25.632Z,340.00
2023-05-20T05:00:25.618Z,340.00
2023-05-20T05:01:25.653Z,344.00
2023-05-20T05:02:25.599Z,352.00
2023-05-20T05:03:25.615Z,352.00
2023-05-20T05:04:25.655Z,360.00
2023-05-20T05:05:25.567Z,376.00
2023-05-20T05:06:25.562Z,400.00
2023-05-20T05:07:25.565Z,420.00
2023-05-20T05:08:25.551Z,432.00
2023-05-20T05:09:25.547Z,432.00
2023-05-20T05:10:25.518Z,420.00
2023-05-20T05:11:25.504Z,428.00
2023-05-20T05:12:25.524Z,440.00
2023-05-20T05:13:25.501Z,472.00
2023-05-20T05:14:25.533Z,500.00
2023-05-20T05:15:25.460Z,516.00
2023-05-20T05:16:25.504Z,508.00
2023-05-20T05:17:25.469Z,504.00
2023-05-20T05:18:25.450Z,496.00
2023-05-20T05:19:25.458Z,488.00
2023-05-20T05:20:25.413Z,464.00
2023-05-20T05:21:25.404Z,456.00
2023-05-20T05:22:25.422Z,456.00
2023-05-20T05:23:25.410Z,464.00
2023-05-20T05:24:25.365Z,480.00
2023-05-20T05:25:25.349Z,512.00
2023-05-20T05:26:25.355Z,540.00
2023-05-20T05:27:25.394Z,560.00
2023-05-20T05:28:25.329Z,596.00
2023-05-20T05:29:25.322Z,616.00
2023-05-20T05:30:25.320Z,668.00
2023-05-20T05:31:25.292Z,692.00
2023-05-20T05:32:25.402Z,684.00
2023-05-20T05:33:25.284Z,684.00
2023-05-20T05:34:25.271Z,728.00
2023-05-20T05:35:25.248Z,796.00
2023-05-20T05:36:25.265Z,852.00
2023-05-20T05:37:25.228Z,884.00
2023-05-20T05:38:25.213Z,900.00
2023-05-20T05:39:25.200Z,928.00
2023-05-20T05:40:25.190Z,936.00
2023-05-20T05:41:25.197Z,956.00
2023-05-20T05:42:25.173Z,964.00
2023-05-20T05:43:25.160Z,972.00
2023-05-20T05:44:25.147Z,996.00
2023-05-20T05:45:25.155Z,1008.00
2023-05-20T05:46:25.218Z,1024.00
2023-05-20T05:47:25.136Z,1020.00
2023-05-20T05:48:25.109Z,1016.00
2023-05-20T05:49:25.105Z,1020.00
2023-05-20T05:50:25.103Z,1028.00
2023-05-20T05:51:25.066Z,1016.00
2023-05-20T05:52:25.065Z,996.00
2023-05-20T05:53:25.050Z,1000.00
2023-05-20T05:54:25.044Z,1008.00
2023-05-20T05:55:25.066Z,996.00
2023-05-20T05:56:25.018Z,976.00
2023-05-20T05:57:25.009Z,972.00
2023-05-20T05:58:25.009Z,980.00
2023-05-20T05:59:25.007Z,984.00
2023-05-20T06:00:24.995Z,964.00
2023-05-20T06:01:24.998Z,924.00
2023-05-20T06:02:25.065Z,912.00
2023-05-20T06:03:25.020Z,892.00
2023-05-20T06:04:25.073Z,852.00
2023-05-20T06:05:25.832Z,844.00
2023-05-20T06:06:24.910Z,880.00
2023-05-20T06:07:24.902Z,952.00
2023-05-20T06:08:24.887Z,968.00
2023-05-20T06:09:24.903Z,940.00
2023-05-20T06:10:24.895Z,936.00
2023-05-20T06:11:24.853Z,936.00
2023-05-20T06:12:24.846Z,944.00
2023-05-20T06:13:24.852Z,932.00
2023-05-20T06:14:24.846Z,912.00
2023-05-20T06:15:24.812Z,912.00
2023-05-20T06:16:24.902Z,916.00
2023-05-20T06:17:24.813Z,964.00
2023-05-20T06:18:24.835Z,1040.00
2023-05-20T06:19:24.837Z,1088.00
2023-05-20T06:20:24.755Z,1112.00
2023-05-20T06:21:24.754Z,1092.00
2023-05-20T06:22:24.748Z,1104.00
2023-05-20T06:23:24.787Z,1128.00
2023-05-20T06:24:24.923Z,1180.00
2023-05-20T06:25:24.706Z,1276.00
2023-05-20T06:26:24.692Z,1304.00
2023-05-20T06:27:24.701Z,1268.00
2023-05-20T06:28:24.684Z,1276.00
2023-05-20T06:29:24.660Z,1344.00
2023-05-20T06:30:24.651Z,1480.00
2023-05-20T06:31:24.683Z,1596.00
2023-05-20T06:32:24.694Z,1648.00
2023-05-20T06:33:24.616Z,1568.00
2023-05-20T06:34:24.623Z,1360.00
2023-05-20T06:35:24.614Z,1252.00
2023-05-20T06:36:24.593Z,1236.00
2023-05-20T06:37:25.224Z,1220.00
2023-05-20T06:38:24.580Z,1172.00
2023-05-20T06:39:24.562Z,1192.00
2023-05-20T06:40:24.539Z,1304.00
2023-05-20T06:41:24.552Z,1376.00
2023-05-20T06:42:24.524Z,1376.00
2023-05-20T06:43:24.543Z,1356.00
2023-05-20T06:44:24.512Z,1380.00
2023-05-20T06:45:24.490Z,1508.00
2023-05-20T06:46:24.524Z,1616.00
2023-05-20T06:47:24.512Z,1644.00
2023-05-20T06:48:24.459Z,1636.00
2023-05-20T06:49:24.445Z,1696.00
2023-05-20T06:50:24.468Z,1800.00
2023-05-20T06:51:24.477Z,1912.00
2023-05-20T06:52:24.434Z,2080.00
2023-05-20T06:53:24.407Z,2032.00
2023-05-20T06:54:24.396Z,2048.00
2023-05-20T06:55:24.413Z,2164.00
2023-05-20T06:56:24.401Z,2316.00
2023-05-20T06:57:24.364Z,2504.00
2023-05-20T06:58:24.352Z,2600.00
2023-05-20T06:59:24.340Z,2632.00
2023-05-20T07:00:24.363Z,2496.00
2023-05-20T07:01:24.365Z,2408.00
2023-05-20T07:02:24.358Z,2348.00
2023-05-20T07:03:24.378Z,2244.00
2023-05-20T07:04:24.282Z,2124.00
2023-05-20T07:05:24.388Z,2024.00
2023-05-20T07:06:24.312Z,2020.00
2023-05-20T07:07:24.260Z,2120.00
2023-05-20T07:08:24.237Z,2176.00
2023-05-20T07:09:24.225Z,2196.00
2023-05-20T07:10:24.248Z,2264.00
2023-05-20T07:11:24.230Z,2160.00
2023-05-20T07:12:24.188Z,2152.00
2023-05-20T07:13:24.234Z,2092.00
2023-05-20T07:14:24.197Z,2004.00
2023-05-20T07:15:24.190Z,1908.00
2023-05-20T07:16:24.220Z,1872.00
2023-05-20T07:17:24.198Z,1836.00
2023-05-20T07:18:24.145Z,1772.00
2023-05-20T07:19:24.232Z,1740.00
2023-05-20T07:20:24.135Z,1848.00
2023-05-20T07:21:24.096Z,1844.00
2023-05-20T07:22:24.106Z,1816.00
2023-05-20T07:23:24.073Z,1956.00
2023-05-20T07:24:24.127Z,2008.00
2023-05-20T07:25:24.055Z,2136.00
2023-05-20T07:26:24.039Z,2184.00
2023-05-20T07:27:24.034Z,2164.00
2023-05-20T07:28:24.032Z,2088.00
2023-05-20T07:29:24.027Z,2164.00
2023-05-20T07:30:24.047Z,2228.00
2023-05-20T07:31:24.034Z,2452.00
2023-05-20T07:32:24.024Z,2696.00
2023-05-20T07:33:23.963Z,2788.00
2023-05-20T07:34:23.996Z,2900.00
2023-05-20T07:35:23.940Z,3052.00
2023-05-20T07:36:23.933Z,2860.00
2023-05-20T07:37:23.922Z,2780.00
2023-05-20T07:38:23.950Z,2688.00
2023-05-20T07:39:23.896Z,2804.00
2023-05-20T07:40:24.099Z,2828.00
2023-05-20T07:41:23.882Z,2856.00
2023-05-20T07:42:23.891Z,2812.00
2023-05-20T07:43:23.884Z,2892.00
2023-05-20T07:44:23.882Z,2852.00
2023-05-20T07:45:23.834Z,2976.00
2023-05-20T07:46:23.848Z,3040.00
2023-05-20T07:47:23.812Z,3140.00
2023-05-20T07:48:23.810Z,3348.00
2023-05-20T07:49:23.835Z,3516.00
2023-05-20T07:50:23.818Z,3724.00
2023-05-20T07:51:23.766Z,3720.00
2023-05-20T07:52:23.756Z,3616.00
2023-05-20T07:53:23.904Z,3700.00
2023-05-20T07:54:23.749Z,3760.00
2023-05-20T07:55:23.742Z,3944.00
2023-05-20T07:56:23.722Z,4028.00
2023-05-20T07:57:23.725Z,4268.00
2023-05-20T07:58:23.706Z,4452.00
2023-05-20T07:59:23.688Z,4524.00
2023-05-20T08:00:23.711Z,4740.00
2023-05-20T08:01:23.682Z,4540.00
2023-05-20T08:02:23.708Z,4356.00
2023-05-20T08:03:23.653Z,4308.00
2023-05-20T08:04:23.675Z,4232.00
2023-05-20T08:05:23.622Z,4248.00
2023-05-20T08:06:23.600Z,4340.00
2023-05-20T08:07:23.603Z,4484.00
2023-05-20T08:08:23.616Z,4792.00
2023-05-20T08:09:23.577Z,4692.00
2023-05-20T08:10:23.615Z,4692.00
2023-05-20T08:11:23.566Z,4760.00
2023-05-20T08:12:23.551Z,4640.00
2023-05-20T08:13:23.529Z,4780.00
2023-05-20T08:14:23.555Z,4732.00
2023-05-20T08:15:23.550Z,4920.00
2023-05-20T08:16:23.590Z,4540.00
2023-05-20T08:17:23.663Z,4512.00
2023-05-20T08:18:23.471Z,4712.00
2023-05-20T08:19:23.568Z,5188.00
2023-05-20T08:20:23.450Z,5372.00
2023-05-20T08:21:23.483Z,5064.00
2023-05-20T08:22:23.431Z,5096.00
2023-05-20T08:23:23.421Z,5132.00
2023-05-20T08:24:23.410Z,4944.00
2023-05-20T08:25:23.408Z,4792.00
2023-05-20T08:26:23.428Z,4784.00
2023-05-20T08:27:23.377Z,4772.00
2023-05-20T08:28:23.386Z,4748.00
2023-05-20T08:29:23.354Z,4804.00
2023-05-20T08:30:23.349Z,4696.00
2023-05-20T08:31:23.489Z,4844.00
2023-05-20T08:32:23.348Z,4680.00
2023-05-20T08:33:23.310Z,5092.00
2023-05-20T08:34:23.297Z,4928.00
2023-05-20T08:35:24.847Z,4944.00
2023-05-20T08:36:23.278Z,4916.00
2023-05-20T08:37:23.264Z,4892.00
2023-05-20T08:38:23.253Z,5124.00
2023-05-20T08:39:23.246Z,4504.00
2023-05-20T08:40:23.250Z,4424.00
2023-05-20T08:41:23.224Z,4900.00
2023-05-20T08:42:23.233Z,5524.00
2023-05-20T08:43:23.206Z,5676.00
2023-05-20T08:44:23.216Z,5284.00
2023-05-20T08:45:23.203Z,5560.00
2023-05-20T08:46:23.237Z,5112.00
2023-05-20T08:47:23.160Z,4840.00
2023-05-20T08:48:23.156Z,4536.00
2023-05-20T08:49:23.174Z,4328.00
2023-05-20T08:50:23.129Z,4352.00
2023-05-20T08:51:23.888Z,3812.00
2023-05-20T08:52:23.103Z,3192.00
2023-05-20T08:53:23.128Z,3052.00
2023-05-20T08:54:23.099Z,3012.00
2023-05-20T08:55:23.092Z,2844.00
2023-05-20T08:56:23.059Z,2564.00
2023-05-20T08:57:23.079Z,2584.00
2023-05-20T08:58:23.092Z,2800.00
2023-05-20T08:59:23.078Z,3404.00
2023-05-20T09:00:23.017Z,3180.00
2023-05-20T09:01:23.064Z,2876.00
2023-05-20T09:02:23.056Z,2508.00
2023-05-20T09:03:23.041Z,2428.00
2023-05-20T09:04:23.027Z,2968.00
2023-05-20T09:05:22.991Z,3056.00
2023-05-20T09:06:22.958Z,3104.00
2023-05-20T09:07:22.947Z,3400.00
2023-05-20T09:08:22.953Z,3600.00
2023-05-20T09:09:22.940Z,3640.00
2023-05-20T09:10:22.909Z,3340.00
2023-05-20T09:11:22.913Z,3060.00
2023-05-20T09:12:22.906Z,2900.00
2023-05-20T09:13:23.898Z,2660.00
2023-05-20T09:14:22.939Z,2604.00
2023-05-20T09:15:22.869Z,3064.00
2023-05-20T09:16:22.939Z,3292.00
2023-05-20T09:17:22.909Z,3452.00
2023-05-20T09:18:22.829Z,2924.00
2023-05-20T09:19:24.309Z,2716.00
2023-05-20T09:20:22.801Z,2820.00
2023-05-20T09:21:22.793Z,2856.00
2023-05-20T09:22:22.812Z,2904.00
2023-05-20T09:23:22.777Z,2708.00
2023-05-20T09:24:22.756Z,2920.00
2023-05-20T09:25:23.996Z,3644.00
2023-05-20T09:26:22.772Z,3544.00
2023-05-20T09:27:22.749Z,3352.00
2023-05-20T09:28:22.720Z,3348.00
2023-05-20T09:29:22.706Z,2976.00
2023-05-20T09:30:22.708Z,2996.00
2023-05-20T09:31:22.732Z,3524.00
2023-05-20T09:32:22.726Z,4068.00
2023-05-20T09:33:22.668Z,3720.00
2023-05-20T09:34:22.643Z,3708.00
2023-05-20T09:35:22.642Z,3824.00
2023-05-20T09:36:22.656Z,4176.00
2023-05-20T09:37:22.642Z,4260.00
2023-05-20T09:38:22.600Z,4368.00
2023-05-20T09:39:22.597Z,3700.00
2023-05-20T09:40:22.577Z,3516.00
2023-05-20T09:41:22.597Z,3396.00
2023-05-20T09:42:22.562Z,3620.00
2023-05-20T09:43:22.556Z,3912.00
2023-05-20T09:44:22.536Z,4208.00
2023-05-20T09:45:22.550Z,4016.00
2023-05-20T09:46:22.577Z,3820.00
2023-05-20T09:47:22.510Z,3816.00
2023-05-20T09:48:22.503Z,3296.00
2023-05-20T09:49:22.486Z,2464.00
2023-05-20T09:50:22.543Z,2164.00
2023-05-20T09:51:22.464Z,1992.00
2023-05-20T09:52:22.461Z,1776.00
2023-05-20T09:53:22.448Z,1876.00
2023-05-20T09:54:22.461Z,2116.00
2023-05-20T09:55:22.470Z,2084.00
2023-05-20T09:56:22.419Z,2164.00
2023-05-20T09:57:22.402Z,2248.00
2023-05-20T09:58:22.393Z,1996.00
2023-05-20T09:59:22.394Z,1944.00
2023-05-20T10:00:22.381Z,2072.00
2023-05-20T10:01:22.423Z,2060.00
2023-05-20T10:02:22.449Z,1968.00
2023-05-20T10:03:22.442Z,1948.00
2023-05-20T10:04:22.370Z,2128.00
2023-05-20T10:05:22.320Z,2284.00
2023-05-20T10:06:22.305Z,2332.00
2023-05-20T10:07:34.072Z,2500.00
2023-05-20T10:08:23.367Z,2464.00
2023-05-20T10:09:22.294Z,2296.00
2023-05-20T10:10:22.315Z,2300.00
2023-05-20T10:11:22.251Z,2424.00
2023-05-20T10:12:22.244Z,2800.00
2023-05-20T10:13:22.251Z,3284.00
2023-05-20T10:14:22.233Z,3568.00
2023-05-20T10:15:22.208Z,4008.00
2023-05-20T10:16:22.275Z,3780.00
2023-05-20T10:17:22.237Z,3148.00
2023-05-20T10:18:22.216Z,2736.00
2023-05-20T10:19:22.242Z,2596.00
2023-05-20T10:20:22.160Z,2684.00
2023-05-20T10:21:22.144Z,2756.00
2023-05-20T10:22:22.166Z,2428.00
2023-05-20T10:23:22.153Z,2704.00
2023-05-20T10:24:22.153Z,2908.00
2023-05-20T10:25:22.099Z,3260.00
2023-05-20T10:26:22.097Z,4088.00
2023-05-20T10:27:22.098Z,4508.00
2023-05-20T10:28:22.068Z,4788.00
2023-05-20T10:29:22.061Z,5768.00
2023-05-20T10:30:22.049Z,6684.00
2023-05-20T10:31:22.048Z,7392.00
2023-05-20T10:32:22.076Z,9232.00
2023-05-20T10:33:22.056Z,9088.00
2023-05-20T10:34:22.030Z,9364.00
2023-05-20T10:35:21.991Z,10572.00
2023-05-20T10:36:21.982Z,9972.00
2023-05-20T10:37:21.995Z,8112.00
2023-05-20T10:38:21.960Z,7572.00
2023-05-20T10:39:21.964Z,8448.00
2023-05-20T10:40:21.938Z,8080.00
2023-05-20T10:41:21.959Z,9216.00
2023-05-20T10:42:21.928Z,9064.00
2023-05-20T10:43:22.265Z,7468.00
2023-05-20T10:44:21.898Z,6308.00
2023-05-20T10:45:21.894Z,6212.00
2023-05-20T10:46:34.815Z,6048.00
2023-05-20T10:47:25.913Z,5996.00
2023-05-20T10:48:21.944Z,5840.00
2023-05-20T10:49:24.439Z,6700.00
2023-05-20T10:50:22.903Z,6860.00
2023-05-20T10:51:21.835Z,8100.00
2023-05-20T10:52:21.808Z,8560.00
2023-05-20T10:53:32.252Z,7824.00
2023-05-20T10:54:22.781Z,6324.00
2023-05-20T10:55:21.840Z,5232.00
2023-05-20T10:56:21.792Z,5224.00
2023-05-20T10:57:21.777Z,5508.00
2023-05-20T10:58:21.741Z,5964.00
2023-05-20T10:59:21.761Z,5556.00
2023-05-20T11:00:21.715Z,4980.00
2023-05-20T11:01:21.798Z,4552.00
2023-05-20T11:02:21.697Z,4580.00
2023-05-20T11:03:21.790Z,5036.00
2023-05-20T11:04:21.674Z,6152.00
2023-05-20T11:05:21.665Z,5888.00
2023-05-20T11:06:21.711Z,6560.00
2023-05-20T11:07:21.669Z,6924.00
2023-05-20T11:08:28.894Z,6344.00
2023-05-20T11:09:22.638Z,6972.00
2023-05-20T11:10:21.630Z,7420.00
2023-05-20T11:11:21.649Z,7568.00
2023-05-20T11:12:21.595Z,6924.00
2023-05-20T11:13:21.620Z,7128.00
2023-05-20T11:14:21.593Z,7556.00
2023-05-20T11:15:21.567Z,8272.00
2023-05-20T11:16:21.570Z,7632.00
2023-05-20T11:17:21.588Z,7380.00
2023-05-20T11:18:21.530Z,7904.00
2023-05-20T11:19:21.692Z,8256.00
2023-05-20T11:20:21.503Z,8456.00
2023-05-20T11:21:21.491Z,7192.00
2023-05-20T11:22:21.499Z,7980.00
2023-05-20T11:23:21.467Z,8440.00
2023-05-20T11:24:21.514Z,8412.00
2023-05-20T11:25:21.494Z,7808.00
2023-05-20T11:26:21.435Z,7004.00
2023-05-20T11:27:21.426Z,7188.00
2023-05-20T11:28:21.454Z,6752.00
2023-05-20T11:29:21.433Z,7584.00
2023-05-20T11:30:21.395Z,7576.00
2023-05-20T11:31:21.381Z,6392.00
2023-05-20T11:32:21.561Z,6364.00
2023-05-20T11:33:21.458Z,6764.00
2023-05-20T11:34:23.332Z,8580.00
2023-05-20T11:35:21.340Z,7988.00
2023-05-20T11:37:22.316Z,7168.00
2023-05-20T11:38:21.350Z,7384.00
2023-05-20T11:39:21.313Z,8104.00
2023-05-20T11:40:21.281Z,7732.00
2023-05-20T11:41:21.276Z,7212.00
2023-05-20T11:42:21.259Z,6572.00
2023-05-20T11:43:21.297Z,7120.00
2023-05-20T11:44:21.235Z,7672.00
2023-05-20T11:45:21.229Z,7264.00
2023-05-20T11:46:21.336Z,7820.00
2023-05-20T11:47:22.606Z,7428.00
2023-05-20T11:48:21.239Z,8076.00
2023-05-20T11:49:21.186Z,7756.00
2023-05-20T11:50:21.197Z,7436.00
2023-05-20T11:51:21.179Z,7688.00
2023-05-20T11:52:21.196Z,7048.00
2023-05-20T11:53:21.136Z,7344.00
2023-05-20T11:54:21.160Z,7368.00
2023-05-20T11:55:21.117Z,7016.00
2023-05-20T11:56:21.128Z,7224.00
2023-05-20T11:57:21.111Z,6788.00
2023-05-20T11:58:21.094Z,5584.00
2023-05-20T11:59:21.078Z,5060.00
2023-05-20T12:00:21.064Z,5292.00
2023-05-20T12:01:22.648Z,5816.00
2023-05-20T12:02:21.089Z,6748.00
2023-05-20T12:03:21.201Z,7004.00
2023-05-20T12:04:21.161Z,6476.00
2023-05-20T12:05:21.022Z,6020.00
2023-05-20T12:06:21.069Z,6088.00
2023-05-20T12:07:20.991Z,6496.00
2023-05-20T12:08:20.986Z,6232.00
2023-05-20T12:09:20.977Z,6340.00
2023-05-20T12:10:21.010Z,5748.00
2023-05-20T12:11:20.980Z,5896.00
2023-05-20T12:12:20.945Z,6216.00
2023-05-20T12:13:20.945Z,6212.00
2023-05-20T12:14:20.915Z,6412.00
2023-05-20T12:15:20.921Z,6296.00
2023-05-20T12:16:20.981Z,6260.00
2023-05-20T12:17:20.886Z,6124.00
2023-05-20T12:18:20.878Z,5600.00
2023-05-20T12:19:20.896Z,5292.00
2023-05-20T12:20:20.908Z,5140.00
2023-05-20T12:21:20.845Z,5044.00
2023-05-20T12:22:20.873Z,5020.00
2023-05-20T12:23:20.819Z,4748.00
2023-05-20T12:24:20.836Z,4652.00
2023-05-20T12:25:20.797Z,4672.00
2023-05-20T12:26:20.831Z,4856.00
2023-05-20T12:27:20.774Z,4324.00
2023-05-20T12:28:20.762Z,4112.00
2023-05-20T12:29:20.776Z,4336.00